createdAt,value
2023-05-16T00:00:38.282Z,16.30
2023-05-16T00:03:06.464Z,16.30
2023-05-16T00:05:33.512Z,16.30
2023-05-16T00:08:00.288Z,16.30
2023-05-16T00:10:27.283Z,16.30
2023-05-16T00:12:54.746Z,16.30
2023-05-16T00:15:22.806Z,16.30
2023-05-16T00:17:49.703Z,16.30
2023-05-16T00:20:19.055Z,16.40
2023-05-16T00:22:46.287Z,16.30
2023-05-16T00:25:13.100Z,16.40
2023-05-16T00:27:39.980Z,16.40
2023-05-16T00:30:07.566Z,16.40
2023-05-16T00:32:34.486Z,16.40
2023-05-16T00:35:01.322Z,16.40
2023-05-16T00:37:28.222Z,16.40
2023-05-16T00:39:58.419Z,16.40
2023-05-16T00:42:25.188Z,16.40
2023-05-16T00:44:51.950Z,16.40
2023-05-16T00:47:18.682Z,16.40
2023-05-16T00:49:45.712Z,16.40
2023-05-16T00:52:12.795Z,16.40
2023-05-16T00:54:39.662Z,16.40
2023-05-16T00:57:06.946Z,16.40
2023-05-16T00:59:34.257Z,16.40
2023-05-16T01:02:01.413Z,16.40
2023-05-16T01:04:29.381Z,16.40
2023-05-16T01:06:57.120Z,16.40
2023-05-16T01:09:24.083Z,16.40
2023-05-16T01:12:01.366Z,16.40
2023-05-16T01:14:51.684Z,16.40
2023-05-16T01:17:44.847Z,16.40
2023-05-16T01:20:36.822Z,16.40
2023-05-16T01:23:25.247Z,16.40
2023-05-16T01:26:10.529Z,16.40
2023-05-16T01:28:38.095Z,16.30
2023-05-16T01:31:04.961Z,16.30
2023-05-16T01:33:31.767Z,16.30
2023-05-16T01:36:08.734Z,16.30
2023-05-16T01:39:04.060Z,16.30
2023-05-16T01:42:04.150Z,16.30
2023-05-16T01:44:57.032Z,16.20
2023-05-16T01:47:27.161Z,16.20
2023-05-16T01:49:53.998Z,16.20
2023-05-16T01:52:28.361Z,16.20
2023-05-16T01:54:58.038Z,16.10
2023-05-16T01:57:27.139Z,16.10
2023-05-16T01:59:54.008Z,16.10
2023-05-16T02:02:21.215Z,16.10
2023-05-16T02:04:48.059Z,16.10
2023-05-16T02:07:15.261Z,16.10
2023-05-16T02:09:42.154Z,16.20
2023-05-16T02:12:08.965Z,16.10
2023-05-16T02:14:35.950Z,16.10
2023-05-16T02:17:02.909Z,16.10
2023-05-16T02:19:29.712Z,16.10
2023-05-16T02:21:56.872Z,16.10
2023-05-16T02:24:23.744Z,16.10
2023-05-16T02:26:50.636Z,16.10
2023-05-16T02:29:17.510Z,16.10
2023-05-16T02:31:44.332Z,16.00
2023-05-16T02:34:11.783Z,16.00
2023-05-16T02:36:38.698Z,16.00
2023-05-16T02:39:05.931Z,16.00
2023-05-16T02:41:33.268Z,15.90
2023-05-16T02:44:00.625Z,15.90
2023-05-16T02:46:32.349Z,15.90
2023-05-16T02:48:59.759Z,15.90
2023-05-16T02:51:28.271Z,15.90
2023-05-16T02:53:59.910Z,15.90
2023-05-16T02:56:29.262Z,15.80
2023-05-16T02:58:56.384Z,15.80
2023-05-16T03:01:23.342Z,15.80
2023-05-16T03:03:50.564Z,15.80
2023-05-16T03:06:17.391Z,15.70
2023-05-16T03:08:44.263Z,15.70
2023-05-16T03:11:11.236Z,15.70
2023-05-16T03:13:38.014Z,15.70
2023-05-16T03:16:06.194Z,15.70
2023-05-16T03:18:33.321Z,15.70
2023-05-16T03:21:00.213Z,15.70
2023-05-16T03:23:27.312Z,15.70
2023-05-16T03:25:54.159Z,15.70
2023-05-16T03:28:20.959Z,15.70
2023-05-16T03:30:47.958Z,15.70
2023-05-16T03:33:14.789Z,15.70
2023-05-16T03:35:43.955Z,15.60
2023-05-16T03:38:10.839Z,15.60
2023-05-16T03:40:37.751Z,15.60
2023-05-16T03:43:04.532Z,15.60
2023-05-16T03:45:31.740Z,15.60
2023-05-16T03:47:58.584Z,15.60
2023-05-16T03:50:25.597Z,15.60
2023-05-16T03:52:55.868Z,15.60
2023-05-16T03:55:22.689Z,15.60
2023-05-16T03:57:50.267Z,15.60
2023-05-16T04:00:17.314Z,15.50
2023-05-16T04:02:44.346Z,15.50
2023-05-16T04:05:12.619Z,15.50
2023-05-16T04:07:40.380Z,15.60
2023-05-16T04:10:07.587Z,15.60
2023-05-16T04:12:34.380Z,15.60
2023-05-16T04:15:01.135Z,15.60
2023-05-16T04:17:27.916Z,15.70
2023-05-16T04:19:54.839Z,15.70
2023-05-16T04:22:24.853Z,15.70
2023-05-16T04:24:51.947Z,15.70
2023-05-16T04:27:18.749Z,15.70
2023-05-16T04:29:45.528Z,15.70
2023-05-16T04:32:12.536Z,15.70
2023-05-16T04:34:40.487Z,15.70
2023-05-16T04:37:08.467Z,15.70
2023-05-16T04:39:36.660Z,15.70
2023-05-16T04:42:04.400Z,15.80
2023-05-16T04:44:31.747Z,15.80
2023-05-16T04:46:58.686Z,15.80
2023-05-16T04:49:25.596Z,15.90
2023-05-16T04:51:52.507Z,16.00
2023-05-16T04:54:19.311Z,16.00
2023-05-16T04:56:46.152Z,16.00
2023-05-16T04:59:13.025Z,16.00
2023-05-16T05:01:40.121Z,16.10
2023-05-16T05:04:06.984Z,16.10
2023-05-16T05:06:33.868Z,16.10
2023-05-16T05:09:00.743Z,16.10
2023-05-16T05:11:27.603Z,16.20
2023-05-16T05:13:54.451Z,16.20
2023-05-16T05:16:21.463Z,16.30
2023-05-16T05:18:48.579Z,16.30
2023-05-16T05:21:15.557Z,16.30
2023-05-16T05:23:42.421Z,16.40
2023-05-16T05:26:09.326Z,16.40
2023-05-16T05:28:37.732Z,16.40
2023-05-16T05:31:08.307Z,16.50
2023-05-16T05:33:35.261Z,16.50
2023-05-16T05:36:04.019Z,16.60
2023-05-16T05:38:31.384Z,16.60
2023-05-16T05:40:58.103Z,16.60
2023-05-16T05:43:24.928Z,16.60
2023-05-16T05:45:52.289Z,16.60
2023-05-16T05:48:19.392Z,16.70
2023-05-16T05:50:46.287Z,16.70
2023-05-16T05:53:13.135Z,16.70
2023-05-16T05:55:42.193Z,16.70
2023-05-16T05:58:09.319Z,16.70
2023-05-16T06:00:36.507Z,16.70
2023-05-16T06:03:03.489Z,16.80
2023-05-16T06:05:30.629Z,16.80
2023-05-16T06:07:57.712Z,16.80
2023-05-16T06:10:24.507Z,16.80
2023-05-16T06:12:51.316Z,16.80
2023-05-16T06:15:18.282Z,16.90
2023-05-16T06:17:45.202Z,16.90
2023-05-16T06:20:12.312Z,17.00
2023-05-16T06:22:39.307Z,17.10
2023-05-16T06:25:06.624Z,17.10
2023-05-16T06:27:33.609Z,17.10
2023-05-16T06:30:00.638Z,17.20
2023-05-16T06:32:27.446Z,17.20
2023-05-16T06:34:54.298Z,17.20
2023-05-16T06:37:21.253Z,17.20
2023-05-16T06:39:48.154Z,17.20
2023-05-16T06:42:15.176Z,17.30
2023-05-16T06:44:42.023Z,17.30
2023-05-16T06:47:08.923Z,17.30
2023-05-16T06:49:36.015Z,17.30
2023-05-16T06:52:02.913Z,17.30
2023-05-16T06:54:29.754Z,17.20
2023-05-16T06:56:56.742Z,17.20
2023-05-16T06:59:24.592Z,17.30
2023-05-16T07:01:52.144Z,17.30
2023-05-16T07:04:19.033Z,17.30
2023-05-16T07:06:45.840Z,17.30
2023-05-16T07:09:12.767Z,17.30
2023-05-16T07:11:39.618Z,17.40
2023-05-16T07:14:06.543Z,17.50
2023-05-16T07:16:33.593Z,17.50
2023-05-16T07:19:00.624Z,17.50
2023-05-16T07:21:27.988Z,17.60
2023-05-16T07:23:54.914Z,17.60
2023-05-16T07:26:23.369Z,17.60
2023-05-16T07:28:50.779Z,17.60
2023-05-16T07:31:17.871Z,17.70
2023-05-16T07:33:47.222Z,17.70
2023-05-16T07:36:17.336Z,17.80
2023-05-16T07:38:44.900Z,17.80
2023-05-16T07:41:11.929Z,17.80
2023-05-16T07:43:38.738Z,17.70
2023-05-16T07:46:05.916Z,17.70
2023-05-16T07:48:32.839Z,17.80
2023-05-16T07:50:59.612Z,17.80
2023-05-16T07:53:26.399Z,17.80
2023-05-16T07:55:53.368Z,17.80
2023-05-16T07:58:20.460Z,17.70
2023-05-16T08:00:47.573Z,17.60
2023-05-16T08:03:14.585Z,17.70
2023-05-16T08:05:41.587Z,17.70
2023-05-16T08:08:08.515Z,17.70
2023-05-16T08:10:35.343Z,17.70
2023-05-16T08:13:02.186Z,17.80
2023-05-16T08:15:29.308Z,17.80
2023-05-16T08:17:59.706Z,17.80
2023-05-16T08:20:26.850Z,17.80
2023-05-16T08:22:54.587Z,17.90
2023-05-16T08:25:21.656Z,17.90
2023-05-16T08:27:51.131Z,17.90
2023-05-16T08:30:18.080Z,17.90
2023-05-16T08:32:44.996Z,18.00
2023-05-16T08:35:13.084Z,18.10
2023-05-16T08:37:40.032Z,18.10
2023-05-16T08:40:09.434Z,18.20
2023-05-16T08:42:37.474Z,18.20
2023-05-16T08:45:05.872Z,18.20
2023-05-16T08:47:33.240Z,18.10
2023-05-16T08:50:02.794Z,18.20
2023-05-16T08:52:31.854Z,18.20
2023-05-16T08:55:10.896Z,18.20
2023-05-16T08:57:39.051Z,18.20
2023-05-16T09:00:12.055Z,18.20
2023-05-16T09:02:43.351Z,18.30
2023-05-16T09:05:12.976Z,18.30
2023-05-16T09:07:40.695Z,18.40
2023-05-16T09:10:08.459Z,18.40
2023-05-16T09:12:35.813Z,18.40
2023-05-16T09:15:03.834Z,18.50
2023-05-16T09:17:47.251Z,18.50
2023-05-16T09:20:16.513Z,18.60
2023-05-16T09:22:53.540Z,18.60
2023-05-16T09:25:30.112Z,18.60
2023-05-16T09:28:01.220Z,18.60
2023-05-16T09:30:31.843Z,18.60
2023-05-16T09:32:59.401Z,18.60
2023-05-16T09:37:56.905Z,18.60
2023-05-16T09:40:24.561Z,18.70
2023-05-16T09:43:04.757Z,18.70
2023-05-16T09:45:32.490Z,18.70
2023-05-16T09:48:04.221Z,18.70
2023-05-16T09:50:34.126Z,18.60
2023-05-16T09:53:01.884Z,18.70
2023-05-16T09:55:29.114Z,18.70
2023-05-16T09:57:56.666Z,18.80
2023-05-16T10:00:33.313Z,18.90
2023-05-16T10:03:04.609Z,18.90
2023-05-16T10:05:32.437Z,19.00
2023-05-16T10:07:59.814Z,19.10
2023-05-16T10:10:28.604Z,19.20
2023-05-16T10:12:59.097Z,19.20
2023-05-16T10:15:27.299Z,19.30
2023-05-16T10:17:58.984Z,19.30
2023-05-16T10:20:26.974Z,19.30
2023-05-16T10:22:56.849Z,19.30
2023-05-16T10:25:29.732Z,19.30
2023-05-16T10:27:57.819Z,19.30
2023-05-16T10:30:25.606Z,19.30
2023-05-16T10:32:53.437Z,19.40
2023-05-16T10:35:21.822Z,19.40
2023-05-16T10:37:50.609Z,19.40
2023-05-16T10:40:18.438Z,19.50
2023-05-16T10:42:58.307Z,19.50
2023-05-16T10:45:25.479Z,19.50
2023-05-16T10:47:54.022Z,19.60
2023-05-16T10:50:43.824Z,19.60
2023-05-16T10:53:23.486Z,19.60
2023-05-16T10:55:59.372Z,19.60
2023-05-16T10:58:35.734Z,19.60
2023-05-16T11:01:32.073Z,19.70
2023-05-16T11:04:04.908Z,19.80
2023-05-16T11:06:32.816Z,19.80
2023-05-16T11:09:05.793Z,19.90
2023-05-16T11:11:51.648Z,19.90
2023-05-16T11:14:22.301Z,19.90
2023-05-16T11:17:03.412Z,19.90
2023-05-16T11:19:49.987Z,20.00
2023-05-16T11:22:20.005Z,20.00
2023-05-16T11:24:57.441Z,19.90
2023-05-16T11:27:43.419Z,20.00
2023-05-16T11:30:10.215Z,20.10
2023-05-16T11:32:39.246Z,20.10
2023-05-16T11:35:08.993Z,20.20
2023-05-16T11:37:36.822Z,20.30
2023-05-16T11:40:04.694Z,20.30
2023-05-16T11:42:34.843Z,20.40
2023-05-16T11:45:18.356Z,20.40
2023-05-16T11:47:48.045Z,20.50
2023-05-16T11:50:17.062Z,20.50
2023-05-16T11:52:54.703Z,20.50
2023-05-16T11:55:41.393Z,20.50
2023-05-16T11:58:10.769Z,20.50
2023-05-16T12:00:47.344Z,20.50
2023-05-16T12:03:14.177Z,20.50
2023-05-16T12:05:53.624Z,20.40
2023-05-16T12:08:24.766Z,20.40
2023-05-16T12:10:52.548Z,20.40
2023-05-16T12:13:21.254Z,20.30
2023-05-16T12:15:48.660Z,20.30
2023-05-16T12:18:16.791Z,20.30
2023-05-16T12:20:44.949Z,20.30
2023-05-16T12:23:13.795Z,20.40
2023-05-16T12:25:46.493Z,20.40
2023-05-16T12:28:15.015Z,20.50
2023-05-16T12:30:43.862Z,20.60
2023-05-16T12:33:13.877Z,20.60
2023-05-16T12:35:42.733Z,20.60
2023-05-16T12:38:14.042Z,20.70
2023-05-16T12:40:44.875Z,20.70
2023-05-16T12:43:20.441Z,20.70
2023-05-16T12:45:55.587Z,20.70
2023-05-16T12:48:23.816Z,20.80
2023-05-16T12:50:51.107Z,20.80
2023-05-16T12:53:19.312Z,20.90
2023-05-16T12:55:46.561Z,20.90
2023-05-16T12:58:13.654Z,20.90
2023-05-16T13:00:41.002Z,20.90
2023-05-16T13:03:08.254Z,20.90
2023-05-16T13:05:36.344Z,21.00
2023-05-16T13:08:03.965Z,21.00
2023-05-16T13:10:31.062Z,21.00
2023-05-16T13:13:00.071Z,21.00
2023-05-16T13:15:27.815Z,21.00
2023-05-16T13:17:55.070Z,21.10
2023-05-16T13:20:22.014Z,21.10
2023-05-16T13:22:49.083Z,21.10
2023-05-16T13:25:16.255Z,21.20
2023-05-16T13:27:43.162Z,21.10
2023-05-16T13:30:10.255Z,21.10
2023-05-16T13:32:37.112Z,21.10
2023-05-16T13:35:04.236Z,21.20
2023-05-16T13:37:31.487Z,21.20
2023-05-16T13:39:58.473Z,21.20
2023-05-16T13:42:25.426Z,21.20
2023-05-16T13:44:52.651Z,21.20
2023-05-16T13:47:22.300Z,21.20
2023-05-16T13:49:49.186Z,21.10
2023-05-16T13:52:16.475Z,21.10
2023-05-16T13:54:46.290Z,20.90
2023-05-16T13:57:13.203Z,20.90
2023-05-16T14:02:09.878Z,21.00
2023-05-16T14:04:36.827Z,21.00
2023-05-16T14:07:03.847Z,21.00
2023-05-16T14:09:30.822Z,21.10
2023-05-16T14:11:57.733Z,21.10
2023-05-16T14:14:24.544Z,21.20
2023-05-16T14:16:51.642Z,21.30
2023-05-16T14:19:19.533Z,21.30
2023-05-16T14:21:46.626Z,21.30
2023-05-16T14:24:13.394Z,21.30
2023-05-16T14:26:41.327Z,21.40
2023-05-16T14:29:08.371Z,21.50
2023-05-16T14:31:36.657Z,21.50
2023-05-16T14:34:04.225Z,21.60
2023-05-16T14:36:31.896Z,21.40
2023-05-16T14:38:58.871Z,21.40
2023-05-16T14:41:28.236Z,21.30
2023-05-16T14:43:56.199Z,21.30
2023-05-16T14:46:23.619Z,21.40
2023-05-16T14:48:51.173Z,21.50
2023-05-16T14:51:18.021Z,21.50
2023-05-16T14:53:46.931Z,21.50
2023-05-16T14:56:14.194Z,21.50
2023-05-16T14:58:41.192Z,21.50
2023-05-16T15:01:08.090Z,21.60
2023-05-16T15:03:46.953Z,21.50
2023-05-16T15:06:18.037Z,21.60
2023-05-16T15:08:44.836Z,21.60
2023-05-16T15:11:11.864Z,21.50
2023-05-16T15:13:39.160Z,21.50
2023-05-16T15:16:06.180Z,21.50
2023-05-16T15:18:33.233Z,21.50
2023-05-16T15:21:00.180Z,21.50
2023-05-16T15:23:27.191Z,21.50
2023-05-16T15:25:54.810Z,21.50
2023-05-16T15:28:22.756Z,21.50
2023-05-16T15:30:50.996Z,21.50
2023-05-16T15:33:17.803Z,21.50
2023-05-16T15:35:44.581Z,21.60
2023-05-16T15:38:11.439Z,21.60
2023-05-16T15:40:38.941Z,21.60
2023-05-16T15:43:05.843Z,21.50
2023-05-16T15:45:33.477Z,21.50
2023-05-16T15:48:00.941Z,21.50
2023-05-16T15:50:27.964Z,21.50
2023-05-16T15:52:54.750Z,21.60
2023-05-16T15:55:24.734Z,21.60
2023-05-16T15:57:51.756Z,21.50
2023-05-16T16:00:18.848Z,21.50
2023-05-16T16:02:46.274Z,21.50
2023-05-16T16:05:13.174Z,21.60
2023-05-16T16:07:40.192Z,21.60
2023-05-16T16:10:07.905Z,21.60
2023-05-16T16:12:35.177Z,21.60
2023-05-16T16:15:02.533Z,21.60
2023-05-16T16:17:29.505Z,21.50
2023-05-16T16:19:56.766Z,21.50
2023-05-16T16:22:23.737Z,21.50
2023-05-16T16:24:50.766Z,21.50
2023-05-16T16:27:17.594Z,21.50
2023-05-16T16:29:44.537Z,21.40
2023-05-16T16:32:11.334Z,21.40
2023-05-16T16:34:38.243Z,21.40
2023-05-16T16:37:05.277Z,21.40
2023-05-16T16:39:33.202Z,21.30
2023-05-16T16:42:00.438Z,21.30
2023-05-16T16:44:27.257Z,21.30
2023-05-16T16:46:54.223Z,21.30
2023-05-16T16:49:21.207Z,21.30
2023-05-16T16:51:48.144Z,21.30
2023-05-16T16:54:14.944Z,21.30
2023-05-16T16:56:41.955Z,21.40
2023-05-16T16:59:08.841Z,21.30
2023-05-16T17:01:36.004Z,21.40
2023-05-16T17:04:03.083Z,21.40
2023-05-16T17:06:30.282Z,21.30
2023-05-16T17:08:57.659Z,21.30
2023-05-16T17:11:24.599Z,21.30
2023-05-16T17:13:51.860Z,21.30
2023-05-16T17:16:18.760Z,21.30
2023-05-16T17:18:45.765Z,21.30
2023-05-16T17:21:13.261Z,21.30
2023-05-16T17:23:43.240Z,21.30
2023-05-16T17:26:10.869Z,21.30
2023-05-16T17:28:37.663Z,21.30
2023-05-16T17:31:04.497Z,21.30
2023-05-16T17:33:31.629Z,21.30
2023-05-16T17:35:58.488Z,21.30
2023-05-16T17:38:25.354Z,21.20
2023-05-16T17:40:52.311Z,21.20
2023-05-16T17:43:19.128Z,21.20
2023-05-16T17:45:47.096Z,21.20
2023-05-16T17:48:14.661Z,21.10
2023-05-16T17:50:44.879Z,21.10
2023-05-16T17:53:11.801Z,21.10
2023-05-16T17:55:38.705Z,21.10
2023-05-16T17:58:06.762Z,21.00
2023-05-16T18:00:33.827Z,21.00
2023-05-16T18:03:00.771Z,21.00
2023-05-16T18:05:28.799Z,21.00
2023-05-16T18:07:55.959Z,21.00
2023-05-16T18:10:22.797Z,21.00
2023-05-16T18:12:50.457Z,21.00
2023-05-16T18:15:18.684Z,20.90
2023-05-16T18:17:45.945Z,20.90
2023-05-16T18:20:13.163Z,20.90
2023-05-16T18:22:41.825Z,20.90
2023-05-16T18:25:09.947Z,20.80
2023-05-16T18:27:37.757Z,20.80
2023-05-16T18:30:05.795Z,20.70
2023-05-16T18:32:33.188Z,20.70
2023-05-16T18:35:00.071Z,20.70
2023-05-16T18:37:27.181Z,20.70
2023-05-16T18:39:53.973Z,20.70
2023-05-16T18:42:21.150Z,20.60
2023-05-16T18:44:48.223Z,20.60
2023-05-16T18:47:15.814Z,20.60
2023-05-16T18:49:43.489Z,20.50
2023-05-16T18:52:11.355Z,20.50
2023-05-16T18:54:39.076Z,20.50
2023-05-16T18:57:06.688Z,20.50
2023-05-16T18:59:34.852Z,20.40
2023-05-16T19:02:02.182Z,20.40
2023-05-16T19:04:29.189Z,20.40
2023-05-16T19:06:58.049Z,20.40
2023-05-16T19:09:25.248Z,20.40
2023-05-16T19:11:52.210Z,20.40
2023-05-16T19:14:19.154Z,20.40
2023-05-16T19:16:46.392Z,20.30
2023-05-16T19:19:13.283Z,20.30
2023-05-16T19:21:40.478Z,20.30
2023-05-16T19:24:08.381Z,20.30
2023-05-16T19:26:35.419Z,20.30
2023-05-16T19:29:02.763Z,20.30
2023-05-16T19:31:29.651Z,20.30
2023-05-16T19:33:56.661Z,20.30
2023-05-16T19:36:23.942Z,20.30
2023-05-16T19:38:50.826Z,20.20
2023-05-16T19:41:18.539Z,20.20
2023-05-16T19:43:45.528Z,20.30
2023-05-16T19:46:12.467Z,20.20
2023-05-16T19:48:39.468Z,20.20
2023-05-16T19:51:06.474Z,20.20
2023-05-16T19:53:33.340Z,20.20
2023-05-16T19:56:00.891Z,20.10
2023-05-16T19:58:27.860Z,20.10
2023-05-16T20:00:56.080Z,20.10
2023-05-16T20:03:23.612Z,20.10
2023-05-16T20:05:50.484Z,20.10
2023-05-16T20:08:17.380Z,20.10
2023-05-16T20:10:44.321Z,20.10
2023-05-16T20:13:11.267Z,20.00
2023-05-16T20:15:38.115Z,20.00
2023-05-16T20:18:05.174Z,20.00
2023-05-16T20:20:32.107Z,20.00
2023-05-16T20:22:58.974Z,20.00
2023-05-16T20:25:26.219Z,19.90
2023-05-16T20:27:53.384Z,19.90
2023-05-16T20:30:20.218Z,19.90
2023-05-16T20:32:47.085Z,19.90
2023-05-16T20:35:14.915Z,19.90
2023-05-16T20:37:41.870Z,19.90
2023-05-16T20:40:09.550Z,19.90
2023-05-16T20:42:36.707Z,19.80
2023-05-16T20:45:04.251Z,19.80
2023-05-16T20:47:31.223Z,19.80
2023-05-16T20:49:58.079Z,19.80
2023-05-16T20:52:25.172Z,19.70
2023-05-16T20:54:51.925Z,19.70
2023-05-16T20:57:18.838Z,19.70
2023-05-16T20:59:45.719Z,19.70
2023-05-16T21:02:12.569Z,19.70
2023-05-16T21:04:39.726Z,19.70
2023-05-16T21:07:08.404Z,19.70
2023-05-16T21:09:37.097Z,19.70
2023-05-16T21:12:04.421Z,19.60
2023-05-16T21:14:31.273Z,19.60
2023-05-16T21:16:58.066Z,19.60
2023-05-16T21:19:24.954Z,19.60
2023-05-16T21:21:51.807Z,19.60
2023-05-16T21:24:18.644Z,19.60
2023-05-16T21:26:45.461Z,19.60
2023-05-16T21:29:12.379Z,19.60
2023-05-16T21:31:39.172Z,19.60
2023-05-16T21:34:06.302Z,19.50
2023-05-16T21:36:33.231Z,19.50
2023-05-16T21:39:00.060Z,19.50
2023-05-16T21:41:27.090Z,19.50
2023-05-16T21:43:54.097Z,19.50
2023-05-16T21:46:21.039Z,19.50
2023-05-16T21:48:48.078Z,19.40
2023-05-16T21:51:15.060Z,19.40
2023-05-16T21:53:42.480Z,19.40
2023-05-16T21:56:09.287Z,19.50
2023-05-16T21:58:36.074Z,19.40
2023-05-16T22:01:13.007Z,19.40
2023-05-16T22:03:40.013Z,19.40
2023-05-16T22:06:07.052Z,19.40
2023-05-16T22:08:33.906Z,19.40
2023-05-16T22:11:00.845Z,19.40
2023-05-16T22:13:27.678Z,19.30
2023-05-16T22:16:03.899Z,19.30
2023-05-16T22:18:33.088Z,19.30
2023-05-16T22:21:00.600Z,19.30
2023-05-16T22:23:27.733Z,19.30
2023-05-16T22:25:54.628Z,19.30
2023-05-16T22:28:21.521Z,19.30
2023-05-16T22:30:48.305Z,19.30
2023-05-16T22:33:15.224Z,19.30
2023-05-16T22:35:42.091Z,19.30
2023-05-16T22:38:08.976Z,19.30
2023-05-16T22:40:35.750Z,19.20
2023-05-16T22:43:02.562Z,19.20
2023-05-16T22:45:29.451Z,19.20
2023-05-16T22:47:56.384Z,19.20
2023-05-16T22:50:23.255Z,19.20
2023-05-16T22:52:50.227Z,19.20
2023-05-16T22:55:17.255Z,19.20
2023-05-16T22:57:44.522Z,19.10
2023-05-16T23:00:12.199Z,19.10
2023-05-16T23:02:39.120Z,19.10
2023-05-16T23:05:06.545Z,19.10
2023-05-16T23:07:33.492Z,19.10
2023-05-16T23:10:00.547Z,19.10
2023-05-16T23:12:27.366Z,19.00
2023-05-16T23:14:54.520Z,19.00
2023-05-16T23:17:21.398Z,19.00
2023-05-16T23:20:07.702Z,19.00
2023-05-16T23:22:34.524Z,19.00
2023-05-16T23:25:01.396Z,19.00
2023-05-16T23:27:28.154Z,18.90
2023-05-16T23:29:55.008Z,18.90
2023-05-16T23:32:21.871Z,18.90
2023-05-16T23:34:48.773Z,18.90
2023-05-16T23:37:16.024Z,18.90
2023-05-16T23:39:43.053Z,18.90
2023-05-16T23:42:10.218Z,18.90
2023-05-16T23:44:36.964Z,18.90
2023-05-16T23:47:03.904Z,18.90
2023-05-16T23:49:30.701Z,18.80
2023-05-16T23:51:58.330Z,18.80
2023-05-16T23:54:26.189Z,18.80
2023-05-16T23:56:53.197Z,18.80
2023-05-16T23:59:20.555Z,18.80
